createdAt,value
2019-05-17T00:00:47.567Z,24.37
2019-05-17T00:03:17.047Z,22.70
2019-05-17T00:05:46.612Z,23.93
2019-05-17T00:08:16.511Z,23.07
2019-05-17T00:10:46.491Z,24.23
2019-05-17T00:13:17.261Z,22.93
2019-05-17T00:15:47.396Z,23.27
2019-05-17T00:18:17.115Z,21.97
2019-05-17T00:20:46.548Z,23.03
2019-05-17T00:23:17.335Z,22.70
2019-05-17T00:25:46.964Z,23.10
2019-05-17T00:28:16.436Z,23.23
2019-05-17T00:30:46.574Z,23.43
2019-05-17T00:33:16.932Z,22.90
2019-05-17T00:35:46.918Z,22.43
2019-05-17T00:38:16.918Z,23.20
2019-05-17T00:40:47.060Z,22.87
2019-05-17T00:43:16.887Z,24.37
2019-05-17T00:45:46.868Z,22.33
2019-05-17T00:48:17.184Z,22.60
2019-05-17T00:50:52.288Z,21.50
2019-05-17T00:53:16.448Z,19.47
2019-05-17T00:55:46.638Z,19.80
2019-05-17T00:58:17.314Z,17.17
2019-05-17T01:00:47.958Z,17.23
2019-05-17T01:03:16.335Z,17.00
2019-05-17T01:05:47.342Z,15.80
2019-05-17T01:08:17.428Z,15.77
2019-05-17T01:10:47.366Z,13.10
2019-05-17T01:13:17.283Z,13.07
2019-05-17T01:15:47.436Z,12.50
2019-05-17T01:18:16.393Z,13.03
2019-05-17T01:20:47.300Z,13.13
2019-05-17T01:23:16.621Z,11.30
2019-05-17T01:25:45.247Z,11.63
2019-05-17T01:28:13.671Z,11.27
2019-05-17T01:30:42.092Z,11.10
2019-05-17T01:33:10.629Z,11.93
2019-05-17T01:35:39.063Z,12.03
2019-05-17T01:38:07.649Z,13.23
2019-05-17T01:40:37.315Z,12.80
2019-05-17T01:43:07.828Z,14.03
2019-05-17T01:45:36.673Z,12.93
2019-05-17T01:48:07.357Z,14.17
2019-05-17T01:50:37.443Z,13.87
2019-05-17T01:53:07.389Z,14.07
2019-05-17T01:55:37.545Z,14.70
2019-05-17T01:58:07.351Z,14.77
2019-05-17T02:00:37.620Z,14.23
2019-05-17T02:03:07.088Z,16.53
2019-05-17T02:05:37.305Z,17.73
2019-05-17T02:08:06.904Z,18.33
2019-05-17T02:10:37.653Z,17.33
2019-05-17T02:13:06.541Z,17.73
2019-05-17T02:15:37.475Z,18.43
2019-05-17T02:18:07.039Z,19.70
2019-05-17T02:20:37.346Z,19.07
2019-05-17T02:23:07.416Z,18.27
2019-05-17T02:25:37.100Z,19.40
2019-05-17T02:28:05.762Z,18.40
2019-05-17T02:30:34.704Z,17.17
2019-05-17T02:33:04.412Z,18.23
2019-05-17T02:35:33.824Z,17.90
2019-05-17T02:38:03.272Z,18.00
2019-05-17T02:40:33.911Z,18.43
2019-05-17T02:43:03.248Z,16.67
2019-05-17T02:45:32.969Z,16.73
2019-05-17T02:48:03.880Z,17.07
2019-05-17T02:50:33.076Z,16.80
2019-05-17T02:53:04.458Z,16.43
2019-05-17T02:55:33.363Z,16.97
2019-05-17T02:58:03.223Z,15.43
2019-05-17T03:00:33.963Z,15.57
2019-05-17T03:03:03.355Z,14.90
2019-05-17T03:05:33.876Z,15.53
2019-05-17T03:08:04.025Z,15.10
2019-05-17T03:10:33.752Z,14.93
2019-05-17T03:13:04.153Z,15.03
2019-05-17T03:15:32.744Z,15.27
2019-05-17T03:18:03.635Z,15.00
2019-05-17T03:20:32.764Z,15.50
2019-05-17T03:23:03.907Z,15.53
2019-05-17T03:25:33.493Z,16.23
2019-05-17T03:28:03.406Z,17.23
2019-05-17T03:30:36.294Z,16.93
2019-05-17T03:33:07.361Z,16.93
2019-05-17T03:35:37.964Z,16.63
2019-05-17T03:38:04.763Z,17.17
2019-05-17T03:41:00.975Z,17.43
2019-05-17T03:43:03.424Z,18.00
2019-05-17T03:45:33.977Z,17.87
2019-05-17T03:48:04.825Z,18.73
2019-05-17T03:50:33.580Z,19.27
2019-05-17T03:53:02.624Z,18.50
2019-05-17T03:55:33.101Z,18.07
2019-05-17T03:58:03.144Z,18.50
2019-05-17T04:00:35.152Z,19.00
2019-05-17T04:03:02.966Z,17.87
2019-05-17T04:05:33.393Z,18.53
2019-05-17T04:08:03.629Z,19.47
2019-05-17T04:10:33.437Z,19.97
2019-05-17T04:13:04.184Z,21.33
2019-05-17T04:15:33.018Z,21.53
2019-05-17T04:18:04.131Z,22.67
2019-05-17T04:20:33.251Z,21.70
2019-05-17T04:23:03.975Z,23.57
2019-05-17T04:25:33.782Z,23.87
2019-05-17T04:28:03.318Z,22.83
2019-05-17T04:30:32.970Z,21.40
2019-05-17T04:33:03.519Z,23.60
2019-05-17T04:35:32.790Z,23.73
2019-05-17T04:38:04.239Z,21.43
2019-05-17T04:40:34.011Z,24.10
2019-05-17T04:43:03.350Z,23.20
2019-05-17T04:45:33.663Z,24.07
2019-05-17T04:48:04.079Z,23.53
2019-05-17T04:50:33.630Z,24.03
2019-05-17T04:53:02.828Z,24.47
2019-05-17T04:55:34.076Z,26.33
2019-05-17T04:58:03.910Z,25.03
2019-05-17T05:00:34.094Z,25.03
2019-05-17T05:03:04.432Z,27.93
2019-05-17T05:05:33.693Z,27.03
2019-05-17T05:08:03.101Z,27.93
2019-05-17T05:10:33.763Z,27.37
2019-05-17T05:13:03.425Z,28.10
2019-05-17T05:15:44.885Z,28.33
2019-05-17T05:18:13.898Z,27.23
2019-05-17T05:20:43.565Z,26.87
2019-05-17T05:23:13.268Z,26.33
2019-05-17T05:25:43.104Z,28.60
2019-05-17T05:28:11.779Z,27.63
2019-05-17T05:30:42.199Z,26.67
2019-05-17T05:33:12.835Z,25.60
2019-05-17T05:35:42.457Z,26.33
2019-05-17T05:38:13.006Z,26.10
2019-05-17T05:40:43.037Z,25.70
2019-05-17T05:43:12.106Z,25.60
2019-05-17T05:45:41.721Z,27.10
2019-05-17T05:48:12.480Z,26.87
2019-05-17T05:50:42.564Z,25.33
2019-05-17T05:53:12.999Z,25.30
2019-05-17T05:55:42.828Z,25.33
2019-05-17T05:58:12.089Z,26.53
2019-05-17T06:00:42.786Z,26.27
2019-05-17T06:03:11.968Z,23.77
2019-05-17T06:05:42.203Z,22.93
2019-05-17T06:08:12.332Z,24.40
2019-05-17T06:10:42.565Z,23.13
2019-05-17T06:13:13.010Z,21.93
2019-05-17T06:15:42.915Z,20.30
2019-05-17T06:18:12.326Z,20.87
2019-05-17T06:20:42.081Z,19.17
2019-05-17T06:23:12.256Z,19.37
2019-05-17T06:25:43.568Z,19.83
2019-05-17T06:28:11.620Z,20.77
2019-05-17T06:30:42.633Z,20.60
2019-05-17T06:33:12.011Z,19.30
2019-05-17T06:35:42.386Z,20.93
2019-05-17T06:38:11.985Z,18.97
2019-05-17T06:40:42.007Z,19.53
2019-05-17T06:43:12.994Z,19.33
2019-05-17T06:45:41.846Z,21.70
2019-05-17T06:48:11.725Z,21.50
2019-05-17T06:50:42.999Z,19.67
2019-05-17T06:53:12.270Z,20.50
2019-05-17T06:55:42.445Z,21.17
2019-05-17T06:58:12.255Z,21.23
2019-05-17T07:00:41.031Z,22.37
2019-05-17T07:03:09.810Z,23.67
2019-05-17T07:05:43.034Z,22.70
2019-05-17T07:08:11.492Z,23.00
2019-05-17T07:10:40.152Z,24.40
2019-05-17T07:13:10.603Z,25.73
2019-05-17T07:15:44.705Z,24.67
2019-05-17T07:18:10.328Z,25.20
2019-05-17T07:20:39.718Z,25.70
2019-05-17T07:23:10.741Z,27.93
2019-05-17T07:25:39.749Z,25.77
2019-05-17T07:28:10.185Z,25.33
2019-05-17T07:30:40.009Z,25.73
2019-05-17T07:33:10.096Z,24.13
2019-05-17T07:35:39.703Z,24.23
2019-05-17T07:38:10.705Z,24.40
2019-05-17T07:40:39.935Z,26.00
2019-05-17T07:43:14.322Z,24.57
2019-05-17T07:45:40.381Z,24.97
2019-05-17T07:48:09.785Z,23.97
2019-05-17T07:50:39.829Z,25.50
2019-05-17T07:53:10.272Z,25.60
2019-05-17T07:55:39.889Z,26.10
2019-05-17T07:58:09.954Z,24.77
2019-05-17T08:00:39.980Z,25.60
2019-05-17T08:03:13.026Z,26.60
2019-05-17T08:05:40.345Z,25.17
2019-05-17T08:08:09.787Z,25.77
2019-05-17T08:10:41.094Z,24.27
2019-05-17T08:13:25.150Z,24.43
2019-05-17T08:15:39.714Z,22.90
2019-05-17T08:18:10.956Z,21.90
2019-05-17T08:20:40.015Z,22.10
2019-05-17T08:23:10.697Z,20.67
2019-05-17T08:25:51.903Z,21.00
2019-05-17T08:28:10.941Z,21.77
2019-05-17T08:30:40.974Z,22.90
2019-05-17T08:33:10.887Z,21.90
2019-05-17T08:35:40.148Z,22.03
2019-05-17T08:38:10.330Z,21.97
2019-05-17T08:40:40.326Z,23.20
2019-05-17T08:43:10.126Z,22.17
2019-05-17T08:45:40.766Z,21.93
2019-05-17T08:48:09.612Z,21.67
2019-05-17T08:50:40.234Z,21.10
2019-05-17T08:53:10.628Z,19.63
2019-05-17T08:55:40.941Z,19.43
2019-05-17T08:58:10.389Z,19.57
2019-05-17T09:00:40.667Z,18.83
2019-05-17T09:03:10.615Z,17.63
2019-05-17T09:05:41.680Z,18.67
2019-05-17T09:08:10.547Z,18.13
2019-05-17T09:10:40.954Z,18.20
2019-05-17T09:13:12.332Z,18.80
2019-05-17T09:15:40.066Z,18.93
2019-05-17T09:18:09.889Z,20.10
2019-05-17T09:20:40.653Z,18.27
2019-05-17T09:23:09.681Z,21.17
2019-05-17T09:25:39.713Z,20.77
2019-05-17T09:28:10.115Z,22.07
2019-05-17T09:30:40.440Z,21.33
2019-05-17T09:33:11.242Z,20.80
2019-05-17T09:35:40.883Z,20.90
2019-05-17T09:38:10.505Z,19.97
2019-05-17T09:40:40.243Z,21.70
2019-05-17T09:43:10.267Z,20.70
2019-05-17T09:45:40.524Z,20.30
2019-05-17T09:48:10.383Z,21.50
2019-05-17T09:50:39.962Z,21.17
2019-05-17T09:53:10.905Z,20.43
2019-05-17T09:55:39.768Z,19.73
2019-05-17T09:58:09.864Z,21.17
2019-05-17T10:00:38.729Z,20.57
2019-05-17T10:03:09.517Z,20.80
2019-05-17T10:05:40.271Z,19.63
2019-05-17T10:08:10.581Z,21.57
2019-05-17T10:10:40.228Z,21.23
2019-05-17T10:13:09.825Z,19.00
2019-05-17T10:15:40.836Z,19.17
2019-05-17T10:18:11.064Z,18.73
2019-05-17T10:20:40.009Z,18.03
2019-05-17T10:23:10.573Z,17.70
2019-05-17T10:25:40.065Z,18.50
2019-05-17T10:28:10.013Z,19.53
2019-05-17T10:30:40.086Z,17.67
2019-05-17T10:33:09.864Z,17.43
2019-05-17T10:35:40.639Z,18.63
2019-05-17T10:38:10.367Z,18.70
2019-05-17T10:40:40.907Z,17.13
2019-05-17T10:43:10.214Z,18.40
2019-05-17T10:45:40.189Z,18.50
2019-05-17T10:48:10.171Z,17.83
2019-05-17T10:50:40.715Z,17.00
2019-05-17T10:53:10.060Z,19.80
2019-05-17T10:55:39.746Z,17.00
2019-05-17T10:58:10.093Z,17.67
2019-05-17T11:00:41.409Z,18.17
2019-05-17T11:03:09.990Z,17.30
2019-05-17T11:05:40.144Z,16.23
2019-05-17T11:08:10.707Z,17.60
2019-05-17T11:10:39.416Z,15.03
2019-05-17T11:13:08.245Z,15.17
2019-05-17T11:15:36.703Z,14.97
2019-05-17T11:18:05.316Z,14.87
2019-05-17T11:20:33.818Z,14.57
2019-05-17T11:23:02.226Z,16.00
2019-05-17T11:25:30.723Z,14.30
2019-05-17T11:27:59.211Z,16.20
2019-05-17T11:30:27.688Z,16.00
2019-05-17T11:32:56.107Z,16.10
2019-05-17T11:35:24.866Z,16.07
2019-05-17T11:37:53.371Z,16.07
2019-05-17T11:40:21.917Z,15.90
2019-05-17T11:42:50.347Z,15.47
2019-05-17T11:45:27.275Z,15.70
2019-05-17T11:47:49.043Z,14.30
2019-05-17T11:50:17.820Z,16.60
2019-05-17T11:52:46.236Z,16.10
2019-05-17T11:55:15.631Z,16.20
2019-05-17T11:57:44.107Z,14.40
2019-05-17T12:00:14.177Z,13.60
2019-05-17T12:02:42.566Z,14.77
2019-05-17T12:05:11.336Z,16.57
2019-05-17T12:07:39.748Z,17.93
2019-05-17T12:10:09.028Z,18.37
2019-05-17T12:12:37.431Z,16.53
2019-05-17T12:15:07.612Z,15.90
2019-05-17T12:17:36.037Z,16.53
2019-05-17T12:20:06.791Z,12.27
2019-05-17T12:22:35.250Z,13.40
2019-05-17T12:25:08.269Z,12.57
2019-05-17T12:27:36.723Z,12.87
2019-05-17T12:30:09.978Z,12.63
2019-05-17T12:32:38.501Z,13.43
2019-05-17T12:35:07.386Z,14.43
2019-05-17T12:37:35.873Z,13.57
2019-05-17T12:40:05.936Z,13.60
2019-05-17T12:42:34.402Z,13.77
2019-05-17T12:45:03.471Z,14.60
2019-05-17T12:47:31.917Z,14.30
2019-05-17T12:50:00.408Z,14.07
2019-05-17T12:52:28.815Z,12.40
2019-05-17T12:54:57.318Z,13.03
2019-05-17T12:57:25.785Z,11.13
2019-05-17T12:59:54.233Z,12.60
2019-05-17T13:02:22.682Z,11.67
2019-05-17T13:04:51.135Z,11.13
2019-05-17T13:07:19.584Z,11.23
2019-05-17T13:09:48.000Z,13.57
2019-05-17T13:12:16.422Z,11.80
2019-05-17T13:14:44.890Z,13.13
2019-05-17T13:17:13.345Z,14.37
2019-05-17T13:19:41.739Z,14.30
2019-05-17T13:22:10.282Z,12.73
2019-05-17T13:24:38.694Z,13.50
2019-05-17T13:27:07.159Z,14.40
2019-05-17T13:29:35.674Z,14.47
2019-05-17T13:32:04.187Z,14.33
2019-05-17T13:34:32.629Z,14.87
2019-05-17T13:37:01.041Z,14.67
2019-05-17T13:39:29.470Z,14.77
2019-05-17T13:41:57.965Z,13.93
2019-05-17T13:44:26.473Z,15.10
2019-05-17T13:46:54.960Z,14.00
2019-05-17T13:49:23.382Z,13.27
2019-05-17T13:51:51.817Z,13.07
2019-05-17T13:54:20.240Z,12.43
2019-05-17T13:56:48.681Z,11.97
2019-05-17T13:59:17.109Z,12.00
2019-05-17T14:01:45.538Z,8.53
2019-05-17T14:04:14.005Z,8.93
2019-05-17T14:06:42.514Z,8.30
2019-05-17T14:09:11.013Z,8.00
2019-05-17T14:11:39.432Z,7.00
2019-05-17T14:14:07.872Z,7.00
2019-05-17T14:16:36.273Z,7.33
2019-05-17T14:19:04.777Z,7.13
2019-05-17T14:21:33.186Z,7.67
2019-05-17T14:24:01.724Z,7.23
2019-05-17T14:26:30.128Z,7.40
2019-05-17T14:28:58.543Z,8.00
2019-05-17T14:31:26.994Z,7.87
2019-05-17T14:33:55.475Z,8.30
2019-05-17T14:36:23.889Z,8.20
2019-05-17T14:38:52.312Z,8.53
2019-05-17T14:41:20.896Z,8.63
2019-05-17T14:43:49.315Z,10.00
2019-05-17T14:46:17.754Z,11.27
2019-05-17T14:48:46.196Z,10.37
2019-05-17T14:51:14.691Z,11.70
2019-05-17T14:53:43.205Z,10.67
2019-05-17T14:56:11.636Z,11.23
2019-05-17T14:58:40.087Z,10.87
2019-05-17T15:01:08.498Z,11.47
2019-05-17T15:03:36.914Z,11.27
2019-05-17T15:06:05.551Z,12.17
2019-05-17T15:08:33.956Z,11.07
2019-05-17T15:11:02.437Z,12.50
2019-05-17T15:13:30.840Z,12.57
2019-05-17T15:15:59.263Z,12.77
2019-05-17T15:18:27.772Z,13.00
2019-05-17T15:20:56.249Z,12.33
2019-05-17T15:23:24.683Z,12.57
2019-05-17T15:25:53.102Z,11.17
2019-05-17T15:28:21.525Z,11.17
2019-05-17T15:30:50.021Z,12.50
2019-05-17T15:33:18.530Z,10.73
2019-05-17T15:35:46.953Z,12.43
2019-05-17T15:38:15.388Z,11.80
2019-05-17T15:40:43.801Z,12.57
2019-05-17T15:43:12.308Z,13.83
2019-05-17T15:45:40.735Z,12.17
2019-05-17T15:48:09.210Z,12.50
2019-05-17T15:50:37.682Z,13.23
2019-05-17T15:53:06.175Z,12.87
2019-05-17T15:55:34.606Z,13.00
2019-05-17T15:58:03.162Z,12.50
2019-05-17T16:00:31.563Z,11.93
2019-05-17T16:03:00.108Z,12.27
2019-05-17T16:05:28.597Z,12.27
2019-05-17T16:07:57.083Z,11.70
2019-05-17T16:10:25.540Z,12.77
2019-05-17T16:13:02.169Z,13.17
2019-05-17T16:15:24.139Z,13.20
2019-05-17T16:17:52.616Z,12.13
2019-05-17T16:20:21.108Z,12.63
2019-05-17T16:22:49.568Z,13.63
2019-05-17T16:25:18.046Z,13.63
2019-05-17T16:27:46.479Z,13.07
2019-05-17T16:30:15.060Z,14.27
2019-05-17T16:32:43.475Z,14.57
2019-05-17T16:35:12.064Z,15.13
2019-05-17T16:37:40.553Z,13.87
2019-05-17T16:40:09.414Z,14.27
2019-05-17T16:42:37.840Z,14.13
2019-05-17T16:45:08.679Z,14.60
2019-05-17T16:47:37.082Z,14.70
2019-05-17T16:50:09.131Z,14.00
2019-05-17T16:52:37.546Z,14.77
2019-05-17T16:55:07.149Z,15.80
2019-05-17T16:57:35.596Z,15.53
2019-05-17T17:00:22.872Z,15.23
2019-05-17T17:02:51.304Z,16.00
2019-05-17T17:05:19.758Z,14.60
2019-05-17T17:07:48.212Z,15.20
2019-05-17T17:10:16.806Z,14.73
2019-05-17T17:12:45.211Z,14.50
2019-05-17T17:15:14.301Z,15.57
2019-05-17T17:17:42.736Z,15.13
2019-05-17T17:20:13.011Z,13.73
2019-05-17T17:22:41.487Z,14.27
2019-05-17T17:25:10.011Z,15.43
2019-05-17T17:27:38.608Z,14.87
2019-05-17T17:30:08.578Z,14.90
2019-05-17T17:32:37.041Z,15.17
2019-05-17T17:35:07.272Z,14.23
2019-05-17T17:37:35.703Z,14.93
2019-05-17T17:40:07.391Z,16.37
2019-05-17T17:42:37.262Z,15.10
2019-05-17T17:45:10.386Z,14.77
2019-05-17T17:47:38.792Z,19.83
2019-05-17T17:50:08.183Z,16.17
2019-05-17T17:52:36.674Z,14.30
2019-05-17T17:55:06.263Z,15.33
2019-05-17T17:57:34.679Z,15.87
2019-05-17T18:00:04.685Z,15.83
2019-05-17T18:02:33.179Z,17.47
2019-05-17T18:05:01.575Z,17.33
2019-05-17T18:07:29.999Z,15.77
2019-05-17T18:09:58.587Z,17.43
2019-05-17T18:12:27.071Z,16.63
2019-05-17T18:14:55.527Z,14.97
2019-05-17T18:17:24.122Z,15.47
2019-05-17T18:19:52.498Z,19.37
2019-05-17T18:22:20.940Z,17.53
2019-05-17T18:24:49.364Z,16.33
2019-05-17T18:27:17.816Z,15.30
2019-05-17T18:29:46.326Z,15.77
2019-05-17T18:32:14.740Z,16.37
2019-05-17T18:34:43.170Z,15.67
2019-05-17T18:37:11.607Z,16.17
2019-05-17T18:39:40.024Z,16.00
2019-05-17T18:42:08.448Z,16.07
2019-05-17T18:44:36.947Z,16.93
2019-05-17T18:47:05.520Z,16.30
2019-05-17T18:49:34.011Z,15.73
2019-05-17T18:52:02.483Z,15.20
2019-05-17T18:54:30.904Z,14.87
2019-05-17T18:56:59.394Z,15.53
2019-05-17T18:59:27.845Z,17.43
2019-05-17T19:01:56.278Z,17.93
2019-05-17T19:04:24.769Z,17.30
2019-05-17T19:06:53.190Z,16.60
2019-05-17T19:09:21.634Z,16.13
2019-05-17T19:11:50.064Z,15.97
2019-05-17T19:14:18.555Z,16.60
2019-05-17T19:16:47.004Z,18.50
2019-05-17T19:19:15.418Z,17.27
2019-05-17T19:21:43.902Z,17.70
2019-05-17T19:24:12.367Z,17.57
2019-05-17T19:26:40.787Z,17.73
2019-05-17T19:29:09.230Z,18.10
2019-05-17T19:31:37.718Z,17.57
2019-05-17T19:34:06.205Z,15.97
2019-05-17T19:36:34.675Z,17.67
2019-05-17T19:39:04.859Z,17.60
2019-05-17T19:41:33.296Z,18.00
2019-05-17T19:44:01.827Z,17.83
2019-05-17T19:46:30.287Z,17.50
2019-05-17T19:48:58.678Z,16.07
2019-05-17T19:51:27.170Z,15.73
2019-05-17T19:53:55.666Z,15.97
2019-05-17T19:56:24.099Z,16.00
2019-05-17T19:58:52.524Z,17.07
2019-05-17T20:01:21.033Z,17.07
2019-05-17T20:03:49.566Z,15.67
2019-05-17T20:06:18.263Z,17.60
2019-05-17T20:08:47.241Z,16.13
2019-05-17T20:11:17.070Z,16.20
2019-05-17T20:13:45.513Z,17.27
2019-05-17T20:16:13.923Z,17.57
2019-05-17T20:18:42.375Z,16.60
2019-05-17T20:21:10.816Z,17.50
2019-05-17T20:23:39.333Z,16.80
2019-05-17T20:26:07.800Z,17.90
2019-05-17T20:28:36.225Z,17.63
2019-05-17T20:31:04.684Z,17.90
2019-05-17T20:33:33.177Z,18.67
2019-05-17T20:36:01.619Z,18.33
2019-05-17T20:38:30.043Z,17.63
2019-05-17T20:40:58.478Z,16.83
2019-05-17T20:43:26.915Z,17.47
2019-05-17T20:45:55.352Z,17.03
2019-05-17T20:48:25.869Z,17.17
2019-05-17T20:50:53.936Z,18.13
2019-05-17T20:53:22.364Z,16.93
2019-05-17T20:55:50.798Z,17.47
2019-05-17T20:58:19.235Z,18.93
2019-05-17T21:00:47.659Z,16.80
2019-05-17T21:03:16.099Z,18.37
2019-05-17T21:05:44.546Z,17.73
2019-05-17T21:08:13.007Z,16.23
2019-05-17T21:10:42.345Z,16.07
2019-05-17T21:13:10.755Z,16.57
2019-05-17T21:15:47.456Z,16.50
2019-05-17T21:18:09.340Z,17.37
2019-05-17T21:20:37.771Z,17.10
2019-05-17T21:23:06.210Z,16.47
2019-05-17T21:25:34.654Z,16.90
2019-05-17T21:28:03.070Z,18.43
2019-05-17T21:30:31.501Z,18.30
2019-05-17T21:32:59.961Z,19.03
2019-05-17T21:35:28.390Z,18.03
2019-05-17T21:37:56.833Z,17.97
2019-05-17T21:40:25.252Z,17.47
2019-05-17T21:42:53.776Z,18.50
2019-05-17T21:45:22.197Z,18.13
2019-05-17T21:47:50.685Z,17.87
2019-05-17T21:50:19.273Z,17.77
2019-05-17T21:52:47.689Z,17.30
2019-05-17T21:55:16.265Z,18.10
2019-05-17T21:57:44.707Z,19.13
2019-05-17T22:00:16.274Z,18.50
2019-05-17T22:02:44.717Z,18.40
2019-05-17T22:05:13.221Z,18.87
2019-05-17T22:07:41.647Z,19.23
2019-05-17T22:10:10.240Z,18.97
2019-05-17T22:12:38.654Z,17.90
2019-05-17T22:15:07.158Z,19.13
2019-05-17T22:17:35.593Z,17.60
2019-05-17T22:20:06.014Z,19.57
2019-05-17T22:22:34.554Z,18.77
2019-05-17T22:25:03.025Z,18.23
2019-05-17T22:27:31.470Z,18.87
2019-05-17T22:29:59.977Z,17.53
2019-05-17T22:32:28.403Z,17.83
2019-05-17T22:34:56.832Z,17.83
2019-05-17T22:37:25.264Z,18.07
2019-05-17T22:39:53.689Z,18.67
2019-05-17T22:42:22.161Z,18.03
2019-05-17T22:44:50.600Z,18.50
2019-05-17T22:47:19.032Z,19.20
2019-05-17T22:49:48.246Z,19.73
2019-05-17T22:52:16.675Z,18.73
2019-05-17T22:54:45.118Z,20.23
2019-05-17T22:57:13.566Z,18.97
2019-05-17T22:59:41.986Z,18.30
2019-05-17T23:02:10.407Z,18.93
2019-05-17T23:04:38.828Z,19.57
2019-05-17T23:07:07.298Z,19.87
2019-05-17T23:09:35.731Z,21.00
2019-05-17T23:12:04.337Z,19.93
2019-05-17T23:14:32.772Z,20.63
2019-05-17T23:17:01.197Z,20.53
2019-05-17T23:19:29.640Z,19.30
2019-05-17T23:21:58.058Z,20.30
2019-05-17T23:24:26.469Z,20.10
2019-05-17T23:26:54.913Z,20.23
2019-05-17T23:29:23.332Z,19.73
2019-05-17T23:31:51.770Z,21.23
2019-05-17T23:34:20.224Z,20.93
2019-05-17T23:36:48.647Z,21.10
2019-05-17T23:39:17.120Z,20.47
2019-05-17T23:41:45.516Z,20.57
2019-05-17T23:44:13.976Z,20.67
2019-05-17T23:46:42.455Z,20.67
2019-05-17T23:49:10.876Z,21.27
2019-05-17T23:51:39.330Z,23.10
2019-05-17T23:54:07.874Z,22.53
2019-05-17T23:56:36.305Z,22.70
2019-05-17T23:59:04.797Z,23.30
